Time,TemperatureF,DewpointF,PressureIn,WindDirection,WindDirectionDegrees,WindSpeedMPH,WindSpeedGustMPH,Humidity,HourlyPrecipIn,Conditions,Clouds,dailyrainin,SoftwareType,DateUTC
2013-09-18 00:00:00,51.5,41.0,29.59,South,184,0.0,2.0,68,0.00,,,0.00,weatherlink.com 1.10,2013-09-18 06:00:00,
2013-09-18 00:15:00,51.9,41.0,29.59,South,180,0.0,1.0,67,0.00,,,0.00,weatherlink.com 1.10,2013-09-18 06:15:00,
2013-09-18 00:30:00,51.9,41.0,29.59,South,186,0.0,3.0,66,0.00,,,0.00,weatherlink.com 1.10,2013-09-18 06:30:00,
2013-09-18 00:45:00,51.1,41.0,29.58,SSE,167,0.0,0.0,68,0.00,,,0.00,weatherlink.com 1.10,2013-09-18 06:45:00,
2013-09-18 01:00:00,50.9,41.0,29.59,SSW,200,0.0,6.0,68,0.00,,,0.00,weatherlink.com 1.10,2013-09-18 07:00:00,
2013-09-18 01:15:00,51.8,41.0,29.59,South,185,0.0,4.0,66,0.00,,,0.00,weatherlink.com 1.10,2013-09-18 07:15:00,
2013-09-18 01:31:00,52.0,40.0,29.58,South,173,4.0,4.0,65,0.00,,,0.00,weatherlink.com 1.10,2013-09-18 07:31:00,
2013-09-18 01:46:00,51.7,41.0,29.59,SSW,195,0.0,7.0,66,0.00,,,0.00,weatherlink.com 1.10,2013-09-18 07:46:00,
2013-09-18 02:01:00,51.6,41.0,29.59,SSE,148,4.0,8.0,67,0.00,,,0.00,weatherlink.com 1.10,2013-09-18 08:01:00,
2013-09-18 02:16:00,51.4,41.0,29.58,South,179,6.0,6.0,68,0.00,,,0.00,weatherlink.com 1.10,2013-09-18 08:16:00,
2013-09-18 02:31:00,51.4,42.0,29.58,South,186,0.0,8.0,69,0.00,,,0.00,weatherlink.com 1.10,2013-09-18 08:31:00,
2013-09-18 02:48:00,51.2,42.0,29.58,SE,139,0.0,7.0,70,0.00,,,0.00,weatherlink.com 1.10,2013-09-18 08:48:00,
2013-09-18 03:01:00,51.0,42.0,29.58,WSW,244,4.0,4.0,71,0.00,,,0.00,weatherlink.com 1.10,2013-09-18 09:01:00,
2013-09-18 03:16:00,51.4,42.0,29.58,South,172,0.0,8.0,70,0.00,,,0.00,weatherlink.com 1.10,2013-09-18 09:16:00,
2013-09-18 03:31:00,51.3,43.0,29.57,South,178,0.0,9.0,72,0.00,,,0.00,weatherlink.com 1.10,2013-09-18 09:31:00,
2013-09-18 03:46:00,51.1,42.0,29.57,SSW,199,0.0,1.0,72,0.00,,,0.00,weatherlink.com 1.10,2013-09-18 09:46:00,
2013-09-18 04:01:00,51.3,43.0,29.59,WSW,246,1.0,6.0,72,0.00,,,0.00,weatherlink.com 1.10,2013-09-18 10:01:00,
2013-09-18 04:16:00,50.9,43.0,29.56,SW,228,0.0,6.0,75,0.00,,,0.00,weatherlink.com 1.10,2013-09-18 10:16:00,
2013-09-18 04:31:00,49.9,43.0,29.55,SSW,198,0.0,2.0,77,0.00,,,0.00,weatherlink.com 1.10,2013-09-18 10:31:00,
2013-09-18 04:46:00,48.7,42.0,29.57,SSW,198,0.0,0.0,79,0.00,,,0.00,weatherlink.com 1.10,2013-09-18 10:46:00,
2013-09-18 05:01:00,47.6,42.0,29.57,WSW,249,0.0,0.0,82,0.00,,,0.00,weatherlink.com 1.10,2013-09-18 11:01:00,
2013-09-18 05:16:00,47.4,42.0,29.57,SSW,205,0.0,2.0,82,0.00,,,0.00,weatherlink.com 1.10,2013-09-18 11:16:00,
2013-09-18 05:31:00,48.7,43.0,29.57,SSW,204,0.0,3.0,80,0.00,,,0.00,weatherlink.com 1.10,2013-09-18 11:31:00,
2013-09-18 05:46:00,49.7,44.0,29.57,South,175,2.0,8.0,81,0.00,,,0.00,weatherlink.com 1.10,2013-09-18 11:46:00,
2013-09-18 06:01:00,48.9,44.0,29.57,South,174,0.0,5.0,83,0.00,,,0.00,weatherlink.com 1.10,2013-09-18 12:01:00,
2013-09-18 06:17:00,49.1,44.0,29.59,WSW,244,0.0,10.0,83,0.01,,,0.01,weatherlink.com 1.10,2013-09-18 12:17:00,
2013-09-18 06:33:00,48.7,44.0,29.58,South,175,0.0,2.0,85,0.01,,,0.01,weatherlink.com 1.10,2013-09-18 12:33:00,
2013-09-18 06:47:00,47.8,44.0,29.59,SSE,155,0.0,6.0,86,0.01,,,0.01,weatherlink.com 1.10,2013-09-18 12:47:00,
2013-09-18 07:02:00,47.9,44.0,29.60,ESE,123,0.0,7.0,87,0.02,,,0.02,weatherlink.com 1.10,2013-09-18 13:02:00,
2013-09-18 07:17:00,47.9,45.0,29.59,SE,140,0.0,6.0,88,0.02,,,0.03,weatherlink.com 1.10,2013-09-18 13:17:00,
2013-09-18 07:32:00,47.8,44.0,29.60,South,184,0.0,9.0,86,0.02,,,0.03,weatherlink.com 1.10,2013-09-18 13:32:00,
2013-09-18 07:47:00,48.3,45.0,29.59,SSE,164,0.0,0.0,87,0.02,,,0.03,weatherlink.com 1.10,2013-09-18 13:47:00,
2013-09-18 08:02:00,48.6,44.0,29.59,SSE,149,0.0,1.0,84,0.01,,,0.03,weatherlink.com 1.10,2013-09-18 14:02:00,
2013-09-18 08:17:00,49.6,44.0,29.59,South,175,0.0,6.0,82,0.00,,,0.03,weatherlink.com 1.10,2013-09-18 14:17:00,
2013-09-18 08:32:00,51.8,44.0,29.59,ESE,117,0.0,7.0,75,0.00,,,0.03,weatherlink.com 1.10,2013-09-18 14:32:00,
2013-09-18 08:47:00,53.6,45.0,29.59,SSE,165,0.0,11.0,72,0.00,,,0.03,weatherlink.com 1.10,2013-09-18 14:47:00,
2013-09-18 09:03:00,53.0,44.0,29.59,SSW,206,0.0,9.0,71,0.00,,,0.03,weatherlink.com 1.10,2013-09-18 15:03:00,
2013-09-18 09:17:00,53.6,45.0,29.60,SW,217,4.0,11.0,72,0.00,,,0.03,weatherlink.com 1.10,2013-09-18 15:17:00,
2013-09-18 09:32:00,54.6,45.0,29.60,South,177,4.0,10.0,70,0.00,,,0.03,weatherlink.com 1.10,2013-09-18 15:32:00,
2013-09-18 09:47:00,56.3,45.0,29.59,South,184,7.0,13.0,66,0.00,,,0.03,weatherlink.com 1.10,2013-09-18 15:47:00,
2013-09-18 10:02:00,57.7,44.0,29.59,SSW,202,9.0,15.0,60,0.00,,,0.03,weatherlink.com 1.10,2013-09-18 16:02:00,
2013-09-18 10:19:00,59.0,44.0,29.60,SW,230,2.0,11.0,58,0.00,,,0.03,weatherlink.com 1.10,2013-09-18 16:19:00,
2013-09-18 10:32:00,59.4,43.0,29.59,SSW,198,1.0,15.0,54,0.00,,,0.03,weatherlink.com 1.10,2013-09-18 16:32:00,
2013-09-18 10:47:00,57.9,44.0,29.60,ESE,113,0.0,15.0,60,0.00,,,0.03,weatherlink.com 1.10,2013-09-18 16:47:00,
2013-09-18 11:02:00,58.3,44.0,29.60,South,184,4.0,13.0,59,0.00,,,0.03,weatherlink.com 1.10,2013-09-18 17:02:00,
2013-09-18 11:18:00,58.4,45.0,29.60,SSW,196,0.0,10.0,61,0.00,,,0.03,weatherlink.com 1.10,2013-09-18 17:18:00,
2013-09-18 11:33:00,59.0,45.0,29.59,South,184,0.0,12.0,60,0.00,,,0.03,weatherlink.com 1.10,2013-09-18 17:33:00,
2013-09-18 11:48:00,60.1,42.0,29.60,SE,140,1.0,12.0,52,0.00,,,0.03,weatherlink.com 1.10,2013-09-18 17:48:00,
2013-09-18 12:03:00,60.8,43.0,29.61,WSW,249,0.0,11.0,53,0.00,,,0.03,weatherlink.com 1.10,2013-09-18 18:03:00,
2013-09-18 12:18:00,61.4,43.0,29.59,SSE,150,0.0,8.0,51,0.00,,,0.03,weatherlink.com 1.10,2013-09-18 18:18:00,
2013-09-18 12:33:00,62.3,42.0,29.59,SSW,193,2.0,14.0,47,0.00,,,0.03,weatherlink.com 1.10,2013-09-18 18:33:00,
2013-09-18 12:48:00,63.4,43.0,29.57,SSE,162,1.0,11.0,47,0.00,,,0.03,weatherlink.com 1.10,2013-09-18 18:48:00,
2013-09-18 13:03:00,64.1,40.0,29.57,South,182,0.0,16.0,41,0.00,,,0.03,weatherlink.com 1.10,2013-09-18 19:03:00,
2013-09-18 13:18:00,65.2,40.0,29.57,SSW,201,4.0,14.0,40,0.00,,,0.03,weatherlink.com 1.10,2013-09-18 19:18:00,
2013-09-18 13:33:00,64.9,42.0,29.57,WSW,250,0.0,7.0,43,0.00,,,0.03,weatherlink.com 1.10,2013-09-18 19:33:00,
2013-09-18 13:48:00,60.9,38.0,29.56,West,262,2.0,7.0,43,0.00,,,0.03,weatherlink.com 1.10,2013-09-18 19:48:00,
2013-09-18 14:03:00,61.9,40.0,29.56,WSW,238,0.0,6.0,44,0.00,,,0.03,weatherlink.com 1.10,2013-09-18 20:03:00,
2013-09-18 14:18:00,62.7,40.0,29.55,South,173,2.0,4.0,43,0.00,,,0.03,weatherlink.com 1.10,2013-09-18 20:18:00,
2013-09-18 14:33:00,63.8,41.0,29.54,WSW,251,1.0,5.0,44,0.00,,,0.03,weatherlink.com 1.10,2013-09-18 20:33:00,
2013-09-18 14:48:00,61.5,41.0,29.55,WSW,252,0.0,3.0,48,0.00,,,0.03,weatherlink.com 1.10,2013-09-18 20:48:00,
2013-09-18 15:03:00,55.7,40.0,29.57,SW,231,3.0,20.0,55,0.00,,,0.03,weatherlink.com 1.10,2013-09-18 21:03:00,
2013-09-18 15:18:00,48.2,43.0,29.58,WSW,242,1.0,8.0,82,0.03,,,0.06,weatherlink.com 1.10,2013-09-18 21:18:00,
2013-09-18 15:33:00,49.0,46.0,29.57,WSW,242,0.0,2.0,89,0.03,,,0.06,weatherlink.com 1.10,2013-09-18 21:33:00,
2013-09-18 15:48:00,51.7,46.0,29.58,East,101,0.0,8.0,80,0.03,,,0.06,weatherlink.com 1.10,2013-09-18 21:48:00,
2013-09-18 16:03:00,52.6,46.0,29.58,East,98,1.0,1.0,77,0.03,,,0.06,weatherlink.com 1.10,2013-09-18 22:03:00,
2013-09-18 16:33:00,53.6,45.0,29.59,SE,128,0.0,0.0,73,0.00,,,0.06,weatherlink.com 1.10,2013-09-18 22:33:00,
2013-09-18 16:48:00,53.3,44.0,29.58,NNW,340,0.0,0.0,71,0.00,,,0.06,weatherlink.com 1.10,2013-09-18 22:48:00,
2013-09-18 17:03:00,53.3,46.0,29.57,West,278,0.0,0.0,75,0.00,,,0.06,weatherlink.com 1.10,2013-09-18 23:03:00,
2013-09-18 17:18:00,53.4,46.0,29.59,West,278,0.0,0.0,76,0.00,,,0.06,weatherlink.com 1.10,2013-09-18 23:18:00,
2013-09-18 17:34:00,52.9,45.0,29.59,West,278,0.0,0.0,74,0.00,,,0.06,weatherlink.com 1.10,2013-09-18 23:34:00,
2013-09-18 17:48:00,52.4,46.0,29.61,WSW,253,0.0,0.0,78,0.01,,,0.07,weatherlink.com 1.10,2013-09-18 23:48:00,
2013-09-18 18:04:00,51.2,44.0,29.62,WSW,257,0.0,1.0,77,0.01,,,0.07,weatherlink.com 1.10,2013-09-19 00:04:00,
2013-09-18 18:19:00,48.2,43.0,29.63,WNW,284,0.0,4.0,83,0.02,,,0.08,weatherlink.com 1.10,2013-09-19 00:19:00,
2013-09-18 18:34:00,47.3,43.0,29.63,NNW,327,0.0,1.0,85,0.02,,,0.08,weatherlink.com 1.10,2013-09-19 00:34:00,
2013-09-18 18:49:00,47.1,44.0,29.64,NNW,327,0.0,0.0,87,0.01,,,0.08,weatherlink.com 1.10,2013-09-19 00:49:00,
2013-09-18 19:05:00,47.3,44.0,29.64,NNW,327,0.0,0.0,88,0.00,,,0.08,weatherlink.com 1.10,2013-09-19 01:05:00,
2013-09-18 19:19:00,47.4,44.0,29.63,NNW,327,0.0,0.0,88,0.00,,,0.08,weatherlink.com 1.10,2013-09-19 01:19:00,
2013-09-18 19:34:00,47.1,44.0,29.65,NNW,327,0.0,1.0,88,0.00,,,0.08,weatherlink.com 1.10,2013-09-19 01:34:00,
2013-09-18 19:49:00,47.2,44.0,29.64,SE,144,0.0,3.0,89,0.00,,,0.08,weatherlink.com 1.10,2013-09-19 01:49:00,
2013-09-18 20:05:00,46.9,43.0,29.66,SE,128,0.0,2.0,87,0.00,,,0.08,weatherlink.com 1.10,2013-09-19 02:05:00,
2013-09-18 20:20:00,46.5,43.0,29.66,ESE,113,3.0,6.0,88,0.00,,,0.08,weatherlink.com 1.10,2013-09-19 02:20:00,
2013-09-18 20:34:00,46.2,43.0,29.65,ESE,123,0.0,8.0,88,0.00,,,0.08,weatherlink.com 1.10,2013-09-19 02:34:00,
2013-09-18 20:49:00,45.9,42.0,29.66,SE,146,0.0,0.0,87,0.00,,,0.08,weatherlink.com 1.10,2013-09-19 02:49:00,
2013-09-18 21:05:00,45.9,43.0,29.67,South,169,0.0,1.0,88,0.00,,,0.08,weatherlink.com 1.10,2013-09-19 03:05:00,
2013-09-18 21:19:00,46.0,43.0,29.66,South,169,0.0,0.0,88,0.00,,,0.08,weatherlink.com 1.10,2013-09-19 03:19:00,
2013-09-18 21:34:00,45.9,43.0,29.65,South,169,0.0,0.0,89,0.00,,,0.08,weatherlink.com 1.10,2013-09-19 03:34:00,
2013-09-18 21:49:00,45.8,43.0,29.65,SSE,157,0.0,0.0,88,0.00,,,0.08,weatherlink.com 1.10,2013-09-19 03:49:00,
2013-09-18 22:05:00,45.5,42.0,29.64,South,181,0.0,2.0,87,0.00,,,0.08,weatherlink.com 1.10,2013-09-19 04:05:00,
2013-09-18 22:19:00,45.4,42.0,29.64,SSW,193,0.0,1.0,86,0.00,,,0.08,weatherlink.com 1.10,2013-09-19 04:19:00,
2013-09-18 22:34:00,45.9,41.0,29.64,South,171,0.0,8.0,84,0.00,,,0.08,weatherlink.com 1.10,2013-09-19 04:34:00,
2013-09-18 22:49:00,46.3,41.0,29.65,South,172,0.0,3.0,82,0.00,,,0.08,weatherlink.com 1.10,2013-09-19 04:49:00,
2013-09-18 23:05:00,46.2,41.0,29.66,ESE,110,0.0,0.0,83,0.00,,,0.08,weatherlink.com 1.10,2013-09-19 05:05:00,
2013-09-18 23:19:00,45.7,41.0,29.66,South,184,0.0,4.0,83,0.00,,,0.08,weatherlink.com 1.10,2013-09-19 05:19:00,
2013-09-18 23:34:00,45.6,40.0,29.66,SW,236,1.0,7.0,82,0.00,,,0.08,weatherlink.com 1.10,2013-09-19 05:34:00,
2013-09-18 23:49:00,46.1,41.0,29.66,South,186,0.0,7.0,81,0.00,,,0.08,weatherlink.com 1.10,2013-09-19 05:49:00,